sensor_id;sensor_type;location;lat;lon;timestamp;pressure;altitude;pressure_sealevel;temperature;humidity
55301;BME280;58302;51.446;-2.000;2023-11-22T00:01:05;102519.66;;;1.74;100.00
55301;BME280;58302;51.446;-2.000;2023-11-22T00:03:32;102521.81;;;1.71;100.00
55301;BME280;58302;51.446;-2.000;2023-11-22T00:05:58;102515.13;;;1.75;100.00
55301;BME280;58302;51.446;-2.000;2023-11-22T00:08:24;102521.94;;;1.87;100.00
55301;BME280;58302;51.446;-2.000;2023-11-22T00:10:50;102525.22;;;1.99;100.00
55301;BME280;58302;51.446;-2.000;2023-11-22T00:13:16;102534.34;;;2.14;100.00
55301;BME280;58302;51.446;-2.000;2023-11-22T00:15:42;102533.03;;;2.18;100.00
55301;BME280;58302;51.446;-2.000;2023-11-22T00:18:08;102515.94;;;2.19;100.00
55301;BME280;58302;51.446;-2.000;2023-11-22T00:20:34;102511.56;;;2.18;100.00
55301;BME280;58302;51.446;-2.000;2023-11-22T00:23:00;102523.31;;;2.17;100.00
55301;BME280;58302;51.446;-2.000;2023-11-22T00:25:26;102513.56;;;2.16;100.00
55301;BME280;58302;51.446;-2.000;2023-11-22T00:27:52;102518.47;;;2.21;100.00
55301;BME280;58302;51.446;-2.000;2023-11-22T00:30:18;102518.97;;;2.24;100.00
55301;BME280;58302;51.446;-2.000;2023-11-22T00:32:44;102525.34;;;2.23;100.00
55301;BME280;58302;51.446;-2.000;2023-11-22T00:35:13;102535.91;;;2.25;100.00
55301;BME280;58302;51.446;-2.000;2023-11-22T00:37:52;102520.19;;;2.30;100.00
55301;BME280;58302;51.446;-2.000;2023-11-22T00:40:26;102523.09;;;2.36;100.00
55301;BME280;58302;51.446;-2.000;2023-11-22T00:46:21;102530.31;;;2.44;100.00
55301;BME280;58302;51.446;-2.000;2023-11-22T00:48:48;102525.78;;;2.45;100.00
55301;BME280;58302;51.446;-2.000;2023-11-22T00:51:14;102525.78;;;2.45;100.00
55301;BME280;58302;51.446;-2.000;2023-11-22T00:53:40;102530.16;;;2.46;100.00
55301;BME280;58302;51.446;-2.000;2023-11-22T00:56:06;102540.88;;;2.46;100.00
55301;BME280;58302;51.446;-2.000;2023-11-22T00:58:32;102533.38;;;2.49;100.00
55301;BME280;58302;51.446;-2.000;2023-11-22T01:00:58;102523.00;;;2.54;100.00
55301;BME280;58302;51.446;-2.000;2023-11-22T01:03:24;102525.88;;;2.61;100.00
55301;BME280;58302;51.446;-2.000;2023-11-22T01:05:51;102524.03;;;2.61;100.00
55301;BME280;58302;51.446;-2.000;2023-11-22T01:08:17;102521.97;;;2.55;100.00
55301;BME280;58302;51.446;-2.000;2023-11-22T01:10:44;102537.72;;;2.50;100.00
55301;BME280;58302;51.446;-2.000;2023-11-22T01:13:11;102523.94;;;2.45;100.00
55301;BME280;58302;51.446;-2.000;2023-11-22T01:15:37;102537.06;;;2.48;100.00
55301;BME280;58302;51.446;-2.000;2023-11-22T01:18:03;102536.72;;;2.51;100.00
55301;BME280;58302;51.446;-2.000;2023-11-22T01:20:29;102538.56;;;2.51;100.00
55301;BME280;58302;51.446;-2.000;2023-11-22T01:22:55;102532.00;;;2.45;100.00
55301;BME280;58302;51.446;-2.000;2023-11-22T01:25:21;102526.97;;;2.42;100.00
55301;BME280;58302;51.446;-2.000;2023-11-22T01:27:47;102524.59;;;2.39;100.00
55301;BME280;58302;51.446;-2.000;2023-11-22T01:30:13;102519.53;;;2.36;100.00
55301;BME280;58302;51.446;-2.000;2023-11-22T01:32:40;102508.97;;;2.34;100.00
55301;BME280;58302;51.446;-2.000;2023-11-22T01:35:07;102511.81;;;2.33;100.00
55301;BME280;58302;51.446;-2.000;2023-11-22T01:37:33;102517.19;;;2.33;100.00
55301;BME280;58302;51.446;-2.000;2023-11-22T01:39:59;102519.41;;;2.37;100.00
55301;BME280;58302;51.446;-2.000;2023-11-22T01:42:25;102526.97;;;2.42;100.00
55301;BME280;58302;51.446;-2.000;2023-11-22T01:44:51;102533.38;;;2.49;100.00
55301;BME280;58302;51.446;-2.000;2023-11-22T01:47:18;102532.53;;;2.49;100.00
55301;BME280;58302;51.446;-2.000;2023-11-22T01:49:45;102541.09;;;2.52;100.00
55301;BME280;58302;51.446;-2.000;2023-11-22T01:52:13;102539.47;;;2.59;100.00
55301;BME280;58302;51.446;-2.000;2023-11-22T01:54:40;102532.25;;;2.68;100.00
55301;BME280;58302;51.446;-2.000;2023-11-22T01:57:08;102536.97;;;2.74;100.00
55301;BME280;58302;51.446;-2.000;2023-11-22T01:59:35;102542.03;;;2.77;100.00
55301;BME280;58302;51.446;-2.000;2023-11-22T02:02:01;102540.66;;;2.73;100.00
55301;BME280;58302;51.446;-2.000;2023-11-22T02:04:27;102542.03;;;2.77;100.00
55301;BME280;58302;51.446;-2.000;2023-11-22T02:06:53;102538.88;;;2.82;100.00
55301;BME280;58302;51.446;-2.000;2023-11-22T02:09:19;102550.75;;;2.79;100.00
55301;BME280;58302;51.446;-2.000;2023-11-22T02:11:48;102543.53;;;2.80;100.00
55301;BME280;58302;51.446;-2.000;2023-11-22T02:14:15;102545.38;;;2.79;100.00
55301;BME280;58302;51.446;-2.000;2023-11-22T02:16:41;102543.72;;;2.78;100.00
55301;BME280;58302;51.446;-2.000;2023-11-22T02:19:14;102540.72;;;2.81;100.00
55301;BME280;58302;51.446;-2.000;2023-11-22T02:21:41;102534.00;;;2.85;100.00
55301;BME280;58302;51.446;-2.000;2023-11-22T02:24:07;102542.41;;;2.90;100.00
55301;BME280;58302;51.446;-2.000;2023-11-22T02:26:33;102540.91;;;2.96;100.00
55301;BME280;58302;51.446;-2.000;2023-11-22T02:28:59;102551.16;;;3.01;100.00
55301;BME280;58302;51.446;-2.000;2023-11-22T02:31:25;102560.28;;;3.08;100.00
55301;BME280;58302;51.446;-2.000;2023-11-22T02:33:53;102560.94;;;3.10;100.00
55301;BME280;58302;51.446;-2.000;2023-11-22T02:36:22;102565.31;;;3.11;100.00
55301;BME280;58302;51.446;-2.000;2023-11-22T02:38:48;102551.53;;;3.06;100.00
55301;BME280;58302;51.446;-2.000;2023-11-22T02:41:14;102553.53;;;3.04;100.00
55301;BME280;58302;51.446;-2.000;2023-11-22T02:43:40;102541.44;;;3.00;100.00
55301;BME280;58302;51.446;-2.000;2023-11-22T02:46:08;102542.75;;;2.96;100.00
55301;BME280;58302;51.446;-2.000;2023-11-22T02:48:34;102531.66;;;2.90;100.00
55301;BME280;58302;51.446;-2.000;2023-11-22T02:51:00;102529.31;;;2.87;100.00
55301;BME280;58302;51.446;-2.000;2023-11-22T02:53:27;102537.38;;;2.87;100.00
55301;BME280;58302;51.446;-2.000;2023-11-22T02:55:59;102547.28;;;2.87;100.00
55301;BME280;58302;51.446;-2.000;2023-11-22T02:58:30;102530.16;;;2.88;100.00
55301;BME280;58302;51.446;-2.000;2023-11-22T03:00:57;102537.22;;;2.89;100.00
55301;BME280;58302;51.446;-2.000;2023-11-22T03:03:23;102544.44;;;2.88;100.00
55301;BME280;58302;51.446;-2.000;2023-11-22T03:05:52;102547.28;;;2.87;100.00
55301;BME280;58302;51.446;-2.000;2023-11-22T03:08:18;102531.00;;;2.88;100.00
55301;BME280;58302;51.446;-2.000;2023-11-22T03:10:44;102520.25;;;2.88;100.00
55301;BME280;58302;51.446;-2.000;2023-11-22T03:13:10;102513.03;;;2.89;100.00
55301;BME280;58302;51.446;-2.000;2023-11-22T03:15:36;102507.34;;;2.92;100.00
55301;BME280;58302;51.446;-2.000;2023-11-22T03:18:03;102508.69;;;2.96;100.00
55301;BME280;58302;51.446;-2.000;2023-11-22T03:20:30;102515.75;;;2.97;100.00
55301;BME280;58302;51.446;-2.000;2023-11-22T03:22:58;102525.00;;;3.03;100.00
55301;BME280;58302;51.446;-2.000;2023-11-22T03:25:24;102524.66;;;3.06;100.00
55301;BME280;58302;51.446;-2.000;2023-11-22T03:27:50;102521.81;;;3.07;100.00
55301;BME280;58302;51.446;-2.000;2023-11-22T03:30:17;102530.38;;;3.11;100.00
55301;BME280;58302;51.446;-2.000;2023-11-22T03:32:43;102534.25;;;3.16;100.00
55301;BME280;58302;51.446;-2.000;2023-11-22T03:35:10;102536.78;;;3.18;100.00
55301;BME280;58302;51.446;-2.000;2023-11-22T03:37:37;102533.94;;;3.20;100.00
55301;BME280;58302;51.446;-2.000;2023-11-22T03:40:04;102519.50;;;3.21;100.00
55301;BME280;58302;51.446;-2.000;2023-11-22T03:42:30;102517.66;;;3.21;100.00
55301;BME280;58302;51.446;-2.000;2023-11-22T03:44:56;102519.31;;;3.22;100.00
55301;BME280;58302;51.446;-2.000;2023-11-22T03:47:24;102515.31;;;3.26;100.00
55301;BME280;58302;51.446;-2.000;2023-11-22T03:49:50;102514.13;;;3.29;100.00
55301;BME280;58302;51.446;-2.000;2023-11-22T03:52:16;102502.53;;;3.28;100.00
55301;BME280;58302;51.446;-2.000;2023-11-22T03:54:42;102495.16;;;3.30;100.00
55301;BME280;58302;51.446;-2.000;2023-11-22T03:57:08;102499.34;;;3.33;100.00
55301;BME280;58302;51.446;-2.000;2023-11-22T03:59:34;102493.31;;;3.39;100.00
55301;BME280;58302;51.446;-2.000;2023-11-22T04:02:00;102493.81;;;3.42;100.00
55301;BME280;58302;51.446;-2.000;2023-11-22T04:04:27;102496.31;;;3.44;100.00
55301;BME280;58302;51.446;-2.000;2023-11-22T04:06:53;102505.06;;;3.46;100.00
55301;BME280;58302;51.446;-2.000;2023-11-22T04:09:20;102510.94;;;3.50;100.00
55301;BME280;58302;51.446;-2.000;2023-11-22T04:11:46;102512.63;;;3.51;100.00
55301;BME280;58302;51.446;-2.000;2023-11-22T04:14:14;102505.91;;;3.55;100.00
55301;BME280;58302;51.446;-2.000;2023-11-22T04:16:40;102507.09;;;3.52;100.00
55301;BME280;58302;51.446;-2.000;2023-11-22T04:19:07;102516.84;;;3.53;100.00
55301;BME280;58302;51.446;-2.000;2023-11-22T04:21:33;102508.94;;;3.52;100.00
55301;BME280;58302;51.446;-2.000;2023-11-22T04:24:00;102512.63;;;3.51;100.00
55301;BME280;58302;51.446;-2.000;2023-11-22T04:26:26;102512.28;;;3.46;100.00
55301;BME280;58302;51.446;-2.000;2023-11-22T04:28:52;102510.94;;;3.41;100.00
55301;BME280;58302;51.446;-2.000;2023-11-22T04:31:18;102504.41;;;3.36;100.00
55301;BME280;58302;51.446;-2.000;2023-11-22T04:33:44;102509.91;;;3.34;100.00
55301;BME280;58302;51.446;-2.000;2023-11-22T04:36:10;102503.03;;;3.32;100.00
55301;BME280;58302;51.446;-2.000;2023-11-22T04:38:37;102491.78;;;3.28;100.00
55301;BME280;58302;51.446;-2.000;2023-11-22T04:41:03;102489.44;;;3.25;100.00
55301;BME280;58302;51.446;-2.000;2023-11-22T04:43:29;102496.66;;;3.25;100.00
55301;BME280;58302;51.446;-2.000;2023-11-22T04:45:55;102498.66;;;3.23;100.00
55301;BME280;58302;51.446;-2.000;2023-11-22T04:48:21;102504.88;;;3.23;100.00
55301;BME280;58302;51.446;-2.000;2023-11-22T04:50:47;102505.03;;;3.22;100.00
55301;BME280;58302;51.446;-2.000;2023-11-22T04:53:13;102511.94;;;3.24;100.00
55301;BME280;58302;51.446;-2.000;2023-11-22T04:55:39;102507.25;;;3.26;100.00
55301;BME280;58302;51.446;-2.000;2023-11-22T04:58:06;102505.06;;;3.30;100.00
55301;BME280;58302;51.446;-2.000;2023-11-22T05:00:32;102498.50;;;3.32;100.00
55301;BME280;58302;51.446;-2.000;2023-11-22T05:02:58;102493.47;;;3.37;100.00
55301;BME280;58302;51.446;-2.000;2023-11-22T05:05:24;102478.69;;;3.41;100.00
55301;BME280;58302;51.446;-2.000;2023-11-22T05:07:50;102478.03;;;3.48;100.00
55301;BME280;58302;51.446;-2.000;2023-11-22T05:10:16;102485.59;;;3.52;100.00
55301;BME280;58302;51.446;-2.000;2023-11-22T05:12:42;102493.63;;;3.60;100.00
55301;BME280;58302;51.446;-2.000;2023-11-22T05:15:10;102508.91;;;3.68;100.00
55301;BME280;58302;51.446;-2.000;2023-11-22T05:17:37;102510.63;;;3.69;100.00
55301;BME280;58302;51.446;-2.000;2023-11-22T05:20:04;102517.66;;;3.70;100.00
55301;BME280;58302;51.446;-2.000;2023-11-22T05:22:31;102512.28;;;3.70;100.00
55301;BME280;58302;51.446;-2.000;2023-11-22T05:24:57;102512.81;;;3.74;100.00
55301;BME280;58302;51.446;-2.000;2023-11-22T05:27:23;102509.44;;;3.72;100.00
55301;BME280;58302;51.446;-2.000;2023-11-22T05:29:49;102504.22;;;3.70;100.00
55301;BME280;58302;51.446;-2.000;2023-11-22T05:32:15;102497.50;;;3.74;100.00
55301;BME280;58302;51.446;-2.000;2023-11-22T05:34:42;102493.63;;;3.77;100.00
55301;BME280;58302;51.446;-2.000;2023-11-22T05:37:08;102497.00;;;3.70;100.00
55301;BME280;58302;51.446;-2.000;2023-11-22T05:39:34;102492.97;;;3.66;100.00
55301;BME280;58302;51.446;-2.000;2023-11-22T05:42:02;102493.47;;;3.62;100.00
55301;BME280;58302;51.446;-2.000;2023-11-22T05:44:28;102480.19;;;3.60;100.00
55301;BME280;58302;51.446;-2.000;2023-11-22T05:46:54;102468.09;;;3.56;100.00
55301;BME280;58302;51.446;-2.000;2023-11-22T05:49:20;102475.00;;;3.59;100.00
55301;BME280;58302;51.446;-2.000;2023-11-22T05:51:47;102461.56;;;3.59;100.00
55301;BME280;58302;51.446;-2.000;2023-11-22T05:54:13;102468.44;;;3.61;100.00
55301;BME280;58302;51.446;-2.000;2023-11-22T05:56:39;102483.91;;;3.59;100.00
55301;BME280;58302;51.446;-2.000;2023-11-22T05:59:05;102489.44;;;3.58;100.00
55301;BME280;58302;51.446;-2.000;2023-11-22T06:01:31;102492.97;;;3.58;100.00
55301;BME280;58302;51.446;-2.000;2023-11-22T06:03:57;102501.69;;;3.60;100.00
55301;BME280;58302;51.446;-2.000;2023-11-22T06:06:23;102500.53;;;3.63;100.00
55301;BME280;58302;51.446;-2.000;2023-11-22T06:08:49;102501.19;;;3.65;100.00
55301;BME280;58302;51.446;-2.000;2023-11-22T06:11:15;102486.91;;;3.64;100.00
55301;BME280;58302;51.446;-2.000;2023-11-22T06:13:42;102485.41;;;3.62;100.00
55301;BME280;58302;51.446;-2.000;2023-11-22T06:16:15;102476.00;;;3.58;100.00
55301;BME280;58302;51.446;-2.000;2023-11-22T06:18:41;102485.41;;;3.54;100.00
55301;BME280;58302;51.446;-2.000;2023-11-22T06:21:10;102494.16;;;3.48;100.00
55301;BME280;58302;51.446;-2.000;2023-11-22T06:23:36;102501.88;;;3.42;100.00
55301;BME280;58302;51.446;-2.000;2023-11-22T06:26:02;102495.81;;;3.40;100.00
55301;BME280;58302;51.446;-2.000;2023-11-22T06:28:28;102498.84;;;3.46;100.00
55301;BME280;58302;51.446;-2.000;2023-11-22T06:30:55;102479.84;;;3.55;100.00
55301;BME280;58302;51.446;-2.000;2023-11-22T06:33:22;102485.75;;;3.59;100.00
55301;BME280;58302;51.446;-2.000;2023-11-22T06:35:48;102490.13;;;3.60;100.00
55301;BME280;58302;51.446;-2.000;2023-11-22T06:38:13;102504.38;;;3.60;100.00
55301;BME280;58302;51.446;-2.000;2023-11-22T06:40:39;102516.34;;;3.58;100.00
55301;BME280;58302;51.446;-2.000;2023-11-22T06:43:06;102533.81;;;3.54;100.00
55301;BME280;58302;51.446;-2.000;2023-11-22T06:45:32;102523.53;;;3.49;100.00
55301;BME280;58302;51.446;-2.000;2023-11-22T06:47:58;102525.91;;;3.52;100.00
55301;BME280;58302;51.446;-2.000;2023-11-22T06:50:24;102515.16;;;3.52;100.00
55301;BME280;58302;51.446;-2.000;2023-11-22T06:52:50;102519.34;;;3.55;100.00
55301;BME280;58302;51.446;-2.000;2023-11-22T06:55:19;102510.13;;;3.57;100.00
55301;BME280;58302;51.446;-2.000;2023-11-22T06:57:45;102502.06;;;3.57;100.00
55301;BME280;58302;51.446;-2.000;2023-11-22T07:00:11;102502.53;;;3.61;100.00
55301;BME280;58302;51.446;-2.000;2023-11-22T07:02:43;102497.16;;;3.61;100.00
55301;BME280;58302;51.446;-2.000;2023-11-22T07:05:09;102508.94;;;3.60;100.00
55301;BME280;58302;51.446;-2.000;2023-11-22T07:07:35;102498.84;;;3.62;100.00
55301;BME280;58302;51.446;-2.000;2023-11-22T07:10:02;102498.50;;;3.65;100.00
55301;BME280;58302;51.446;-2.000;2023-11-22T07:12:34;102509.78;;;3.68;100.00
55301;BME280;58302;51.446;-2.000;2023-11-22T07:15:01;102503.72;;;3.75;100.00
55301;BME280;58302;51.446;-2.000;2023-11-22T07:17:28;102486.22;;;3.79;100.00
55301;BME280;58302;51.446;-2.000;2023-11-22T07:19:54;102489.22;;;3.84;100.00
55301;BME280;58302;51.446;-2.000;2023-11-22T07:22:20;102504.03;;;3.88;100.00
55301;BME280;58302;51.446;-2.000;2023-11-22T07:24:48;102518.00;;;3.91;100.00
55301;BME280;58302;51.446;-2.000;2023-11-22T07:27:18;102519.47;;;3.94;100.00
55301;BME280;58302;51.446;-2.000;2023-11-22T07:29:44;102528.91;;;3.98;100.00
55301;BME280;58302;51.446;-2.000;2023-11-22T07:32:11;102544.53;;;4.03;100.00
55301;BME280;58302;51.446;-2.000;2023-11-22T07:34:39;102545.00;;;4.06;100.00
55301;BME280;58302;51.446;-2.000;2023-11-22T07:37:07;102541.81;;;4.11;100.00
55301;BME280;58302;51.446;-2.000;2023-11-22T07:39:34;102538.09;;;4.12;100.00
55301;BME280;58302;51.446;-2.000;2023-11-22T07:42:03;102546.50;;;4.17;100.00
55301;BME280;58302;51.446;-2.000;2023-11-22T07:44:29;102539.44;;;4.16;100.00
55301;BME280;58302;51.446;-2.000;2023-11-22T07:46:59;102523.63;;;4.21;100.00
55301;BME280;58302;51.446;-2.000;2023-11-22T07:49:26;102534.91;;;4.25;100.00
55301;BME280;58302;51.446;-2.000;2023-11-22T07:51:52;102536.91;;;4.22;100.00
55301;BME280;58302;51.446;-2.000;2023-11-22T07:54:21;102538.06;;;4.28;100.00
55301;BME280;58302;51.446;-2.000;2023-11-22T07:56:51;102533.19;;;4.32;100.00
55301;BME280;58302;51.446;-2.000;2023-11-22T07:59:20;102529.50;;;4.33;100.00
55301;BME280;58302;51.446;-2.000;2023-11-22T08:01:46;102529.16;;;4.36;100.00
55301;BME280;58302;51.446;-2.000;2023-11-22T08:04:15;102533.00;;;4.41;100.00
55301;BME280;58302;51.446;-2.000;2023-11-22T08:06:42;102521.72;;;4.46;100.00
55301;BME280;58302;51.446;-2.000;2023-11-22T08:09:08;102519.50;;;4.49;100.00
55301;BME280;58302;51.446;-2.000;2023-11-22T08:11:35;102534.31;;;4.54;100.00
55301;BME280;58302;51.446;-2.000;2023-11-22T08:14:02;102510.91;;;4.54;100.00
55301;BME280;58302;51.446;-2.000;2023-11-22T08:16:28;102507.88;;;4.57;100.00
55301;BME280;58302;51.446;-2.000;2023-11-22T08:18:54;102500.28;;;4.61;100.00
55301;BME280;58302;51.446;-2.000;2023-11-22T08:21:23;102500.78;;;4.64;100.00
55301;BME280;58302;51.446;-2.000;2023-11-22T08:23:49;102492.81;;;4.71;100.00
55301;BME280;58302;51.446;-2.000;2023-11-22T08:26:16;102490.25;;;4.78;100.00
55301;BME280;58302;51.446;-2.000;2023-11-22T08:28:42;102484.19;;;4.84;100.00
55301;BME280;58302;51.446;-2.000;2023-11-22T08:31:08;102496.94;;;4.90;100.00
55301;BME280;58302;51.446;-2.000;2023-11-22T08:33:37;102496.56;;;4.93;100.00
55301;BME280;58302;51.446;-2.000;2023-11-22T08:36:05;102487.97;;;4.97;100.00
55301;BME280;58302;51.446;-2.000;2023-11-22T08:38:31;102490.63;;;5.06;100.00
55301;BME280;58302;51.446;-2.000;2023-11-22T08:41:03;102490.25;;;5.09;100.00
55301;BME280;58302;51.446;-2.000;2023-11-22T08:43:29;102489.53;;;5.15;100.00
55301;BME280;58302;51.446;-2.000;2023-11-22T08:46:01;102485.66;;;5.17;100.00
55301;BME280;58302;51.446;-2.000;2023-11-22T08:48:30;102483.41;;;5.21;100.00
55301;BME280;58302;51.446;-2.000;2023-11-22T08:51:04;102492.34;;;5.21;100.00
55301;BME280;58302;51.446;-2.000;2023-11-22T08:53:30;102501.56;;;5.27;100.00
55301;BME280;58302;51.446;-2.000;2023-11-22T08:55:56;102498.34;;;5.32;100.00
55301;BME280;58302;51.446;-2.000;2023-11-22T08:58:41;102504.84;;;5.37;100.00
55301;BME280;58302;51.446;-2.000;2023-11-22T09:01:10;102501.44;;;5.43;100.00
55301;BME280;58302;51.446;-2.000;2023-11-22T09:03:38;102497.56;;;5.46;100.00
55301;BME280;58302;51.446;-2.000;2023-11-22T09:06:04;102470.88;;;5.51;100.00
55301;BME280;58302;51.446;-2.000;2023-11-22T09:08:38;102466.44;;;5.58;100.00
55301;BME280;58302;51.446;-2.000;2023-11-22T09:11:04;102446.72;;;5.58;100.00
55301;BME280;58302;51.446;-2.000;2023-11-22T09:13:32;102459.28;;;5.65;100.00
55301;BME280;58302;51.446;-2.000;2023-11-22T09:15:58;102435.78;;;5.74;100.00
55301;BME280;58302;51.446;-2.000;2023-11-22T09:18:24;102424.34;;;5.72;100.00
55301;BME280;58302;51.446;-2.000;2023-11-22T09:20:50;102419.38;;;5.75;100.00
55301;BME280;58302;51.446;-2.000;2023-11-22T09:23:16;102425.91;;;5.81;100.00
55301;BME280;58302;51.446;-2.000;2023-11-22T09:25:43;102415.13;;;5.81;100.00
55301;BME280;58302;51.446;-2.000;2023-11-22T09:28:09;102400.25;;;5.85;100.00
55301;BME280;58302;51.446;-2.000;2023-11-22T09:30:35;102405.56;;;5.93;100.00
55301;BME280;58302;51.446;-2.000;2023-11-22T09:33:11;102404.44;;;6.02;100.00
55301;BME280;58302;51.446;-2.000;2023-11-22T09:35:41;102405.38;;;6.10;100.00
55301;BME280;58302;51.446;-2.000;2023-11-22T09:38:08;102415.88;;;6.19;100.00
55301;BME280;58302;51.446;-2.000;2023-11-22T09:40:43;102424.34;;;6.31;100.00
55301;BME280;58302;51.446;-2.000;2023-11-22T09:43:10;102411.78;;;6.38;100.00
55301;BME280;58302;51.446;-2.000;2023-11-22T09:45:36;102405.88;;;6.49;100.00
55301;BME280;58302;51.446;-2.000;2023-11-22T09:48:33;102411.06;;;6.66;100.00
55301;BME280;58302;51.446;-2.000;2023-11-22T09:51:03;102417.00;;;6.76;100.00
55301;BME280;58302;51.446;-2.000;2023-11-22T09:53:40;102415.56;;;6.80;100.00
55301;BME280;58302;51.446;-2.000;2023-11-22T09:56:08;102417.31;;;6.88;100.00
55301;BME280;58302;51.446;-2.000;2023-11-22T09:58:38;102422.63;;;7.02;100.00
55301;BME280;58302;51.446;-2.000;2023-11-22T10:01:05;102421.53;;;7.18;100.00
55301;BME280;58302;51.446;-2.000;2023-11-22T10:03:33;102419.97;;;7.30;100.00
55301;BME280;58302;51.446;-2.000;2023-11-22T10:06:00;102426.31;;;7.37;100.00
55301;BME280;58302;51.446;-2.000;2023-11-22T10:08:26;102422.63;;;7.45;100.00
55301;BME280;58302;51.446;-2.000;2023-11-22T10:10:56;102413.06;;;7.49;100.00
55301;BME280;58302;51.446;-2.000;2023-11-22T10:13:22;102418.31;;;7.57;100.00
55301;BME280;58302;51.446;-2.000;2023-11-22T10:15:52;102423.59;;;7.65;100.00
55301;BME280;58302;51.446;-2.000;2023-11-22T10:18:21;102436.59;;;7.77;100.00
55301;BME280;58302;51.446;-2.000;2023-11-22T10:20:48;102452.28;;;7.88;100.00
55301;BME280;58302;51.446;-2.000;2023-11-22T10:23:18;102423.59;;;7.93;100.00
55301;BME280;58302;51.446;-2.000;2023-11-22T10:25:53;102425.53;;;8.06;100.00
55301;BME280;58302;51.446;-2.000;2023-11-22T10:28:20;102415.78;;;8.18;100.00
55301;BME280;58302;51.446;-2.000;2023-11-22T10:30:47;102422.47;;;8.23;100.00
55301;BME280;58302;51.446;-2.000;2023-11-22T10:33:14;102413.53;;;8.29;100.00
55301;BME280;58302;51.446;-2.000;2023-11-22T10:35:44;102400.22;;;8.34;100.00
55301;BME280;58302;51.446;-2.000;2023-11-22T10:38:13;102387.38;;;8.36;100.00
55301;BME280;58302;51.446;-2.000;2023-11-22T10:40:39;102376.06;;;8.32;100.00
55301;BME280;58302;51.446;-2.000;2023-11-22T10:43:07;102362.06;;;8.22;100.00
55301;BME280;58302;51.446;-2.000;2023-11-22T10:45:34;102362.63;;;8.11;100.00
55301;BME280;58302;51.446;-2.000;2023-11-22T10:48:01;102365.72;;;8.01;100.00
55301;BME280;58302;51.446;-2.000;2023-11-22T10:50:27;102381.72;;;7.96;100.00
55301;BME280;58302;51.446;-2.000;2023-11-22T10:52:56;102379.63;;;7.91;100.00
55301;BME280;58302;51.446;-2.000;2023-11-22T10:55:26;102379.78;;;7.83;100.00
55301;BME280;58302;51.446;-2.000;2023-11-22T10:57:56;102393.28;;;7.77;100.00
55301;BME280;58302;51.446;-2.000;2023-11-22T11:00:22;102396.59;;;7.72;100.00
55301;BME280;58302;51.446;-2.000;2023-11-22T11:02:54;102403.41;;;7.68;100.00
55301;BME280;58302;51.446;-2.000;2023-11-22T11:05:25;102410.50;;;7.69;100.00
55301;BME280;58302;51.446;-2.000;2023-11-22T11:08:09;102420.72;;;7.74;100.00
55301;BME280;58302;51.446;-2.000;2023-11-22T11:10:44;102419.53;;;7.76;100.00
55301;BME280;58302;51.446;-2.000;2023-11-22T11:13:11;102423.69;;;7.79;100.00
55301;BME280;58302;51.446;-2.000;2023-11-22T11:15:40;102425.34;;;7.80;100.00
55301;BME280;58302;51.446;-2.000;2023-11-22T11:18:07;102423.69;;;7.79;100.00
55301;BME280;58302;51.446;-2.000;2023-11-22T11:20:49;102417.31;;;7.86;100.00
55301;BME280;58302;51.446;-2.000;2023-11-22T11:23:17;102430.91;;;8.00;100.00
55301;BME280;58302;51.446;-2.000;2023-11-22T11:25:43;102415.09;;;8.03;100.00
55301;BME280;58302;51.446;-2.000;2023-11-22T11:28:12;102412.00;;;8.13;100.00
55301;BME280;58302;51.446;-2.000;2023-11-22T11:30:49;102425.88;;;8.31;100.00
55301;BME280;58302;51.446;-2.000;2023-11-22T11:33:21;102422.19;;;8.45;100.00
55301;BME280;58302;51.446;-2.000;2023-11-22T11:35:52;102410.56;;;8.58;100.00
55301;BME280;58302;51.446;-2.000;2023-11-22T11:38:21;102409.16;;;8.69;100.00
55301;BME280;58302;51.446;-2.000;2023-11-22T11:40:48;102382.06;;;8.82;100.00
55301;BME280;58302;51.446;-2.000;2023-11-22T11:43:14;102400.03;;;8.96;100.00
55301;BME280;58302;51.446;-2.000;2023-11-22T11:45:42;102398.81;;;9.12;100.00
55301;BME280;58302;51.446;-2.000;2023-11-22T11:48:14;102404.66;;;9.29;100.00
55301;BME280;58302;51.446;-2.000;2023-11-22T11:50:41;102400.03;;;9.43;100.00
55301;BME280;58302;51.446;-2.000;2023-11-22T11:53:11;102403.41;;;9.45;100.00
55301;BME280;58302;51.446;-2.000;2023-11-22T11:55:37;102397.97;;;9.45;100.00
55301;BME280;58302;51.446;-2.000;2023-11-22T11:58:05;102405.66;;;9.61;100.00
55301;BME280;58302;51.446;-2.000;2023-11-22T12:00:31;102409.41;;;9.73;100.00
55301;BME280;58302;51.446;-2.000;2023-11-22T12:02:57;102399.78;;;9.84;100.00
55301;BME280;58302;51.446;-2.000;2023-11-22T12:05:23;102399.34;;;9.87;100.00
55301;BME280;58302;51.446;-2.000;2023-11-22T12:07:50;102404.56;;;9.95;100.00
55301;BME280;58302;51.446;-2.000;2023-11-22T12:10:16;102410.56;;;10.04;100.00
55301;BME280;58302;51.446;-2.000;2023-11-22T12:12:43;102408.25;;;10.14;100.00
55301;BME280;58302;51.446;-2.000;2023-11-22T12:15:11;102407.78;;;10.37;100.00
55301;BME280;58302;51.446;-2.000;2023-11-22T12:17:37;102405.63;;;10.52;100.00
55301;BME280;58302;51.446;-2.000;2023-11-22T12:20:14;102411.16;;;10.77;100.00
55301;BME280;58302;51.446;-2.000;2023-11-22T12:22:41;102422.03;;;10.77;100.00
55301;BME280;58302;51.446;-2.000;2023-11-22T12:25:07;102423.09;;;10.70;100.00
55301;BME280;58302;51.446;-2.000;2023-11-22T12:27:38;102433.13;;;10.69;100.00
55301;BME280;58302;51.446;-2.000;2023-11-22T12:30:05;102435.66;;;10.64;100.00
55301;BME280;58302;51.446;-2.000;2023-11-22T12:32:32;102441.78;;;10.53;100.00
55301;BME280;58302;51.446;-2.000;2023-11-22T12:34:58;102428.03;;;10.86;100.00
55301;BME280;58302;51.446;-2.000;2023-11-22T12:37:27;102404.97;;;11.45;100.00
55301;BME280;58302;51.446;-2.000;2023-11-22T12:39:54;102399.47;;;11.95;100.00
55301;BME280;58302;51.446;-2.000;2023-11-22T12:42:21;102412.69;;;12.47;100.00
55301;BME280;58302;51.446;-2.000;2023-11-22T12:44:51;102437.28;;;12.77;100.00